Time;durP1;ratioP1;P1;durP2;ratioP2;P2;SDS_P1;SDS_P2;PMS_P1;PMS_P2;Temp;Humidity;BMP_temperature;BMP_pressure;BME280_temperature;BME280_humidity;BME280_pressure;Samples;Min_cycle;Max_cycle;Signal;HPM_P1;HPM_P2
2022/11/15 00:00:33;;;;;;;21.15;16.48;;;;;;;;;;5047690;28;20091;-79
2022/11/15 00:02:59;;;;;;;20.13;16.80;;;;;;;;;;5043667;28;20385;-79
2022/11/15 00:05:25;;;;;;;19.10;16.20;;;;;;;;;;5046914;28;20071;-79
2022/11/15 00:07:51;;;;;;;21.23;17.08;;;;;;;;;;5047381;28;20033;-80
2022/11/15 00:10:17;;;;;;;21.05;17.58;;;;;;;;;;5043089;28;20049;-79
2022/11/15 00:12:43;;;;;;;21.10;16.60;;;;;;;;;;5050603;28;20084;-79
2022/11/15 00:15:09;;;;;;;19.98;16.42;;;;;;;;;;5047138;28;20075;-79
2022/11/15 00:17:35;;;;;;;22.67;17.35;;;;;;;;;;5045970;28;20048;-80
2022/11/15 00:20:01;;;;;;;21.02;17.60;;;;;;;;;;5051018;28;20487;-79
2022/11/15 00:22:33;;;;;;;21.10;17.00;;;;;;;;;;5045185;28;20052;-79
2022/11/15 00:24:59;;;;;;;22.25;17.65;;;;;;;;;;5050063;28;20497;-79
2022/11/15 00:27:25;;;;;;;21.73;17.02;;;;;;;;;;5080375;28;20037;-79
2022/11/15 00:29:51;;;;;;;21.98;17.65;;;;;;;;;;5049551;28;20049;-79
2022/11/15 00:32:17;;;;;;;21.95;17.08;;;;;;;;;;5045392;28;20449;-79
2022/11/15 00:34:42;;;;;;;21.63;18.08;;;;;;;;;;5047683;28;20056;-79
2022/11/15 00:37:08;;;;;;;23.63;18.13;;;;;;;;;;5077624;28;20520;-79
2022/11/15 00:39:34;;;;;;;22.63;17.13;;;;;;;;;;5079764;28;20036;-79
2022/11/15 00:42:01;;;;;;;21.55;18.00;;;;;;;;;;5046810;28;20069;-79
2022/11/15 00:44:27;;;;;;;22.35;18.33;;;;;;;;;;5047168;28;20053;-79
2022/11/15 00:46:53;;;;;;;23.52;18.77;;;;;;;;;;5043509;28;20044;-79
2022/11/15 00:49:19;;;;;;;23.40;18.08;;;;;;;;;;5075063;28;20094;-79
2022/11/15 00:51:45;;;;;;;22.98;17.65;;;;;;;;;;5042141;28;20048;-79
2022/11/15 00:54:11;;;;;;;23.15;18.83;;;;;;;;;;5043258;28;20484;-79
2022/11/15 00:56:39;;;;;;;21.40;17.98;;;;;;;;;;5048888;28;20048;-79
2022/11/15 00:59:05;;;;;;;22.23;18.40;;;;;;;;;;5050026;28;20525;-79
2022/11/15 01:01:31;;;;;;;23.10;18.83;;;;;;;;;;5040620;28;20105;-79
2022/11/15 01:04:00;;;;;;;25.92;19.75;;;;;;;;;;5042046;28;20033;-79
2022/11/15 01:06:26;;;;;;;28.08;20.77;;;;;;;;;;5041183;28;20044;-78
2022/11/15 01:08:52;;;;;;;24.85;21.25;;;;;;;;;;5042163;28;20044;-78
2022/11/15 01:11:18;;;;;;;25.08;21.27;;;;;;;;;;5055651;28;20408;-78
2022/11/15 01:13:44;;;;;;;26.05;21.63;;;;;;;;;;5043275;28;20381;-78
2022/11/15 01:16:12;;;;;;;26.27;21.67;;;;;;;;;;5074806;28;20104;-78
2022/11/15 01:18:38;;;;;;;26.98;21.48;;;;;;;;;;5043349;28;20168;-78
2022/11/15 01:21:08;;;;;;;26.23;21.45;;;;;;;;;;5042804;28;20079;-78
2022/11/15 01:23:34;;;;;;;28.45;22.65;;;;;;;;;;5043222;28;20187;-78
2022/11/15 01:26:01;;;;;;;25.67;21.90;;;;;;;;;;5078749;28;20456;-78
2022/11/15 01:28:30;;;;;;;27.05;22.58;;;;;;;;;;5048952;28;20045;-78
2022/11/15 01:30:58;;;;;;;28.23;22.90;;;;;;;;;;5062376;28;20060;-78
2022/11/15 01:33:24;;;;;;;26.08;21.50;;;;;;;;;;5079799;28;20048;-79
2022/11/15 01:35:50;;;;;;;27.10;21.15;;;;;;;;;;5043614;28;20127;-78
2022/11/15 01:38:16;;;;;;;26.48;21.77;;;;;;;;;;5039764;28;20129;-78
2022/11/15 01:40:42;;;;;;;30.35;24.08;;;;;;;;;;5040514;28;20044;-79
2022/11/15 01:43:21;;;;;;;30.13;24.45;;;;;;;;;;5041979;28;20033;-78
2022/11/15 01:45:50;;;;;;;28.83;23.83;;;;;;;;;;5039494;28;20052;-79
2022/11/15 01:48:16;;;;;;;27.40;22.05;;;;;;;;;;5043840;28;20166;-79
2022/11/15 01:50:42;;;;;;;28.85;22.90;;;;;;;;;;5045379;28;20045;-77
2022/11/15 01:53:10;;;;;;;28.58;23.65;;;;;;;;;;5076470;28;20186;-77
2022/11/15 01:55:36;;;;;;;29.55;23.10;;;;;;;;;;5044517;28;20037;-77
2022/11/15 01:58:03;;;;;;;30.40;23.10;;;;;;;;;;5077347;28;20048;-77
2022/11/15 02:00:30;;;;;;;29.75;24.38;;;;;;;;;;5040393;28;20102;-77
2022/11/15 02:02:56;;;;;;;31.35;23.88;;;;;;;;;;5073951;28;20395;-77
2022/11/15 02:05:22;;;;;;;29.67;23.45;;;;;;;;;;5041747;28;20045;-77
2022/11/15 02:07:49;;;;;;;31.90;24.30;;;;;;;;;;5074375;28;20043;-77
2022/11/15 02:10:18;;;;;;;31.17;23.95;;;;;;;;;;5048717;28;20045;-77
2022/11/15 02:12:45;;;;;;;31.77;25.23;;;;;;;;;;5053588;28;20041;-77
2022/11/15 02:15:11;;;;;;;32.30;24.30;;;;;;;;;;5042375;28;20055;-77
2022/11/15 02:17:56;;;;;;;31.27;24.23;;;;;;;;;;5042141;28;20041;-77
2022/11/15 02:20:22;;;;;;;33.85;25.02;;;;;;;;;;5040754;28;21349;-77
2022/11/15 02:23:06;;;;;;;30.58;24.20;;;;;;;;;;5041602;28;20040;-77
2022/11/15 02:25:41;;;;;;;33.13;24.30;;;;;;;;;;5044257;28;20391;-77
2022/11/15 02:28:17;;;;;;;30.23;23.27;;;;;;;;;;5077951;28;20054;-77
2022/11/15 02:30:45;;;;;;;33.33;24.75;;;;;;;;;;5040892;28;20072;-77
2022/11/15 02:33:11;;;;;;;32.33;24.08;;;;;;;;;;5060233;28;20127;-77
2022/11/15 02:35:59;;;;;;;32.10;23.52;;;;;;;;;;5041393;28;20179;-78
2022/11/15 02:38:31;;;;;;;32.90;24.85;;;;;;;;;;5046353;28;20041;-77
2022/11/15 02:40:57;;;;;;;33.55;24.60;;;;;;;;;;5051470;28;20052;-77
2022/11/15 02:43:58;;;;;;;34.10;25.77;;;;;;;;;;5054844;28;20064;-77
2022/11/15 02:49:28;;;;;;;32.17;25.13;;;;;;;;;;5045578;28;20053;-78
2022/11/15 02:51:55;;;;;;;32.45;24.38;;;;;;;;;;5045202;28;20052;-77
2022/11/15 02:54:23;;;;;;;34.50;25.30;;;;;;;;;;5047142;28;20040;-77
2022/11/15 02:56:49;;;;;;;33.35;24.02;;;;;;;;;;5066228;28;22898;-78
2022/11/15 02:59:34;;;;;;;35.13;25.02;;;;;;;;;;5050629;28;20037;-77
2022/11/15 03:02:03;;;;;;;34.63;24.83;;;;;;;;;;5046679;28;20045;-77
2022/11/15 03:04:49;;;;;;;35.25;24.45;;;;;;;;;;5049276;28;20033;-77
2022/11/15 03:07:28;;;;;;;35.60;24.23;;;;;;;;;;5031062;28;20600;-77
2022/11/15 03:09:57;;;;;;;39.20;25.40;;;;;;;;;;5050731;28;20120;-77
2022/11/15 03:12:46;;;;;;;39.75;25.83;;;;;;;;;;5049369;28;20099;-77
2022/11/15 03:15:19;;;;;;;41.13;25.73;;;;;;;;;;5052477;28;20045;-77
2022/11/15 03:17:51;;;;;;;41.33;26.05;;;;;;;;;;5044149;28;20049;-78
2022/11/15 03:20:18;;;;;;;40.13;27.35;;;;;;;;;;5050386;28;20045;-77
2022/11/15 03:22:45;;;;;;;43.20;25.92;;;;;;;;;;5049897;28;20045;-77
2022/11/15 03:25:14;;;;;;;42.67;27.25;;;;;;;;;;5050213;28;20036;-77
2022/11/15 03:27:42;;;;;;;43.75;26.52;;;;;;;;;;5048372;28;20053;-77
2022/11/15 03:30:09;;;;;;;40.85;25.70;;;;;;;;;;5050669;28;20049;-78
2022/11/15 03:32:38;;;;;;;47.22;25.67;;;;;;;;;;5044735;28;20049;-79
2022/11/15 03:35:09;;;;;;;43.88;26.52;;;;;;;;;;5082986;28;20106;-78
2022/11/15 03:37:54;;;;;;;43.47;26.48;;;;;;;;;;5048883;28;20755;-78
2022/11/15 03:40:25;;;;;;;42.42;25.05;;;;;;;;;;5048594;28;20106;-79
2022/11/15 03:43:01;;;;;;;42.55;24.85;;;;;;;;;;5051940;28;20037;-79
2022/11/15 03:45:29;;;;;;;42.80;24.85;;;;;;;;;;5083111;28;20056;-80
2022/11/15 03:48:00;;;;;;;44.47;25.63;;;;;;;;;;5050921;28;20423;-80
2022/11/15 03:50:26;;;;;;;45.25;25.60;;;;;;;;;;5046212;28;20053;-80
2022/11/15 03:52:54;;;;;;;45.85;25.50;;;;;;;;;;5042229;28;20040;-78
2022/11/15 03:55:21;;;;;;;44.20;26.02;;;;;;;;;;5046369;28;20049;-78
2022/11/15 03:57:53;;;;;;;48.67;26.52;;;;;;;;;;5049548;28;20156;-78
2022/11/15 04:00:19;;;;;;;44.85;25.00;;;;;;;;;;5045471;28;20091;-78
2022/11/15 04:02:45;;;;;;;47.35;26.55;;;;;;;;;;5048365;28;20045;-78
2022/11/15 04:05:11;;;;;;;47.35;26.75;;;;;;;;;;5043207;28;20041;-78
2022/11/15 04:07:37;;;;;;;45.55;25.67;;;;;;;;;;5043908;28;20119;-78
2022/11/15 04:10:03;;;;;;;48.72;25.42;;;;;;;;;;5039945;28;20400;-78
2022/11/15 04:12:39;;;;;;;43.40;26.55;;;;;;;;;;5042075;28;20072;-78
2022/11/15 04:15:08;;;;;;;41.45;26.08;;;;;;;;;;5042811;28;20400;-78
2022/11/15 04:17:38;;;;;;;46.35;26.83;;;;;;;;;;5044499;28;20275;-78
2022/11/15 04:25:37;;;;;;;51.38;26.63;;;;;;;;;;5048851;28;20053;-77
2022/11/15 04:28:03;;;;;;;45.05;26.77;;;;;;;;;;5079102;28;20037;-77
2022/11/15 04:30:29;;;;;;;52.38;28.40;;;;;;;;;;5043070;28;20045;-78
2022/11/15 04:32:58;;;;;;;55.97;28.17;;;;;;;;;;5075884;28;20041;-78
2022/11/15 04:35:24;;;;;;;50.95;27.75;;;;;;;;;;5060871;28;20092;-78
2022/11/15 04:37:50;;;;;;;52.35;29.08;;;;;;;;;;5045003;28;20032;-78
2022/11/15 04:40:16;;;;;;;51.75;26.60;;;;;;;;;;5039744;28;20056;-78
2022/11/15 04:42:42;;;;;;;54.38;27.58;;;;;;;;;;5045865;28;20044;-78
2022/11/15 04:45:08;;;;;;;56.40;29.48;;;;;;;;;;5043791;28;20497;-78
2022/11/15 04:47:34;;;;;;;52.78;28.20;;;;;;;;;;5041578;28;20557;-78
2022/11/15 04:50:01;;;;;;;52.65;29.10;;;;;;;;;;5042198;28;20545;-78
2022/11/15 04:52:27;;;;;;;54.63;29.50;;;;;;;;;;5082135;28;20070;-78
2022/11/15 04:54:53;;;;;;;52.78;28.60;;;;;;;;;;5075679;28;20048;-77
2022/11/15 04:57:19;;;;;;;52.63;27.60;;;;;;;;;;5044874;28;20043;-77
2022/11/15 04:59:45;;;;;;;57.13;28.05;;;;;;;;;;5048082;28;20051;-78
2022/11/15 05:02:11;;;;;;;57.00;26.83;;;;;;;;;;5040897;28;20061;-77
2022/11/15 05:04:37;;;;;;;60.78;30.20;;;;;;;;;;5075620;28;20076;-78
2022/11/15 05:07:06;;;;;;;52.58;28.83;;;;;;;;;;5043505;28;20366;-77
2022/11/15 05:09:32;;;;;;;50.55;27.10;;;;;;;;;;5073551;28;20048;-77
2022/11/15 05:11:58;;;;;;;50.72;27.35;;;;;;;;;;5044105;28;20048;-77
2022/11/15 05:14:24;;;;;;;52.08;29.48;;;;;;;;;;5042294;28;20037;-78
2022/11/15 05:16:50;;;;;;;54.83;27.80;;;;;;;;;;5037969;28;20049;-78
2022/11/15 05:19:16;;;;;;;52.78;28.40;;;;;;;;;;5041739;28;20392;-78
2022/11/15 05:21:42;;;;;;;61.55;27.58;;;;;;;;;;5044194;28;20449;-77
2022/11/15 05:24:10;;;;;;;51.63;26.58;;;;;;;;;;5041588;28;20049;-77
2022/11/15 05:26:36;;;;;;;50.17;27.30;;;;;;;;;;5047805;28;20075;-77
2022/11/15 05:29:02;;;;;;;57.50;28.55;;;;;;;;;;5044017;28;20078;-78
2022/11/15 05:31:28;;;;;;;52.03;27.20;;;;;;;;;;5041973;28;20055;-78
2022/11/15 05:33:55;;;;;;;49.78;27.25;;;;;;;;;;5075464;28;20412;-78
2022/11/15 05:36:30;;;;;;;50.15;26.92;;;;;;;;;;5072474;28;20071;-78
2022/11/15 05:38:56;;;;;;;51.42;27.52;;;;;;;;;;5057487;28;20045;-78
2022/11/15 05:41:25;;;;;;;58.28;28.20;;;;;;;;;;5042127;28;20517;-77
2022/11/15 05:43:52;;;;;;;56.40;28.20;;;;;;;;;;5042300;28;20041;-78
2022/11/15 05:46:18;;;;;;;56.17;29.40;;;;;;;;;;5044301;28;20052;-78
2022/11/15 05:48:47;;;;;;;47.40;27.30;;;;;;;;;;5075403;28;20049;-78
2022/11/15 05:51:15;;;;;;;54.90;27.55;;;;;;;;;;5038846;28;20068;-77
2022/11/15 05:53:42;;;;;;;50.20;27.45;;;;;;;;;;5045095;28;20053;-78
2022/11/15 05:56:09;;;;;;;49.63;26.65;;;;;;;;;;5047518;28;20055;-77
2022/11/15 05:58:36;;;;;;;47.63;26.83;;;;;;;;;;5043450;28;20458;-78
2022/11/15 06:01:02;;;;;;;54.65;27.98;;;;;;;;;;5042123;28;20041;-78
2022/11/15 06:03:28;;;;;;;47.22;25.92;;;;;;;;;;5042190;28;20115;-77
2022/11/15 06:06:00;;;;;;;49.72;26.02;;;;;;;;;;5039476;28;20519;-77
2022/11/15 06:08:27;;;;;;;55.58;27.95;;;;;;;;;;5040229;28;20100;-77
2022/11/15 06:10:53;;;;;;;54.83;27.63;;;;;;;;;;5044410;28;20040;-78
2022/11/15 06:13:19;;;;;;;47.88;26.77;;;;;;;;;;5078493;28;20044;-78
2022/11/15 06:15:45;;;;;;;51.88;28.27;;;;;;;;;;5050917;28;20512;-77
2022/11/15 06:18:11;;;;;;;48.10;28.10;;;;;;;;;;5043547;28;20045;-78
2022/11/15 06:20:37;;;;;;;55.08;28.83;;;;;;;;;;5044804;28;20044;-78
2022/11/15 06:23:04;;;;;;;56.70;29.73;;;;;;;;;;5074290;28;20045;-78
2022/11/15 06:25:30;;;;;;;53.60;28.63;;;;;;;;;;5042442;28;20071;-78
2022/11/15 06:27:57;;;;;;;61.35;32.05;;;;;;;;;;5040281;28;20076;-78
2022/11/15 06:30:23;;;;;;;55.67;30.17;;;;;;;;;;5044590;28;20082;-78
2022/11/15 06:32:49;;;;;;;74.32;32.47;;;;;;;;;;5046295;28;20390;-78
2022/11/15 06:35:15;;;;;;;57.60;31.48;;;;;;;;;;5044880;28;20573;-78
2022/11/15 06:37:42;;;;;;;67.18;33.35;;;;;;;;;;5046740;28;20056;-77
2022/11/15 06:40:12;;;;;;;65.55;33.70;;;;;;;;;;5045225;28;20044;-78
2022/11/15 06:42:38;;;;;;;67.18;34.80;;;;;;;;;;5045806;28;20051;-79
2022/11/15 06:45:04;;;;;;;72.75;34.72;;;;;;;;;;5050125;28;20136;-78
2022/11/15 06:47:30;;;;;;;75.38;37.47;;;;;;;;;;5082739;28;20044;-78
2022/11/15 06:49:56;;;;;;;82.32;40.30;;;;;;;;;;5051832;28;20041;-77
2022/11/15 06:52:22;;;;;;;72.53;35.97;;;;;;;;;;5050861;28;20080;-78
2022/11/15 06:54:51;;;;;;;75.70;38.83;;;;;;;;;;5049816;28;20051;-78
2022/11/15 06:57:17;;;;;;;77.90;38.10;;;;;;;;;;5058192;28;20079;-78
2022/11/15 06:59:43;;;;;;;72.55;37.00;;;;;;;;;;5082476;28;20469;-77
2022/11/15 07:02:13;;;;;;;69.45;35.67;;;;;;;;;;5055273;28;20107;-78
2022/11/15 07:04:39;;;;;;;71.80;38.13;;;;;;;;;;5049949;28;20567;-78
2022/11/15 07:07:05;;;;;;;72.20;37.42;;;;;;;;;;5056710;28;20037;-77
2022/11/15 07:09:31;;;;;;;73.22;37.65;;;;;;;;;;5050231;28;20491;-78
2022/11/15 07:11:57;;;;;;;62.15;35.13;;;;;;;;;;5058065;28;20557;-77
2022/11/15 07:14:23;;;;;;;66.18;37.92;;;;;;;;;;5047539;28;20052;-77
2022/11/15 07:16:49;;;;;;;66.95;36.78;;;;;;;;;;5055321;28;20052;-78
2022/11/15 07:19:15;;;;;;;67.45;37.75;;;;;;;;;;5051553;28;20049;-77
2022/11/15 07:21:41;;;;;;;63.35;36.35;;;;;;;;;;5054352;28;20041;-78
2022/11/15 07:24:07;;;;;;;66.75;35.67;;;;;;;;;;5048717;28;20045;-78
2022/11/15 07:26:33;;;;;;;61.63;37.45;;;;;;;;;;5045942;28;20086;-78
2022/11/15 07:29:00;;;;;;;56.42;34.83;;;;;;;;;;5047448;28;20041;-77
2022/11/15 07:31:25;;;;;;;59.30;36.33;;;;;;;;;;5058386;28;20045;-78
2022/11/15 07:33:51;;;;;;;54.45;35.30;;;;;;;;;;5053504;28;20063;-78
2022/11/15 07:36:17;;;;;;;57.60;34.83;;;;;;;;;;5047896;28;20053;-78
2022/11/15 07:38:43;;;;;;;57.83;35.17;;;;;;;;;;5065851;28;20052;-78
2022/11/15 07:41:09;;;;;;;57.88;34.88;;;;;;;;;;5048206;28;20048;-77
2022/11/15 07:43:35;;;;;;;53.90;33.85;;;;;;;;;;5051015;28;20045;-78
2022/11/15 07:46:09;;;;;;;57.20;35.00;;;;;;;;;;5051912;28;20047;-78
2022/11/15 07:48:36;;;;;;;57.53;34.72;;;;;;;;;;5047373;28;20037;-78
2022/11/15 07:51:02;;;;;;;51.03;32.70;;;;;;;;;;5049181;28;20048;-78
2022/11/15 07:53:28;;;;;;;55.83;33.90;;;;;;;;;;5041931;28;20053;-77
2022/11/15 07:55:54;;;;;;;48.63;32.63;;;;;;;;;;5081744;28;20059;-77
2022/11/15 07:58:20;;;;;;;51.88;32.55;;;;;;;;;;5076246;28;20037;-77
2022/11/15 08:00:46;;;;;;;53.08;33.83;;;;;;;;;;5056889;28;20496;-77
2022/11/15 08:03:13;;;;;;;48.88;32.20;;;;;;;;;;5080711;28;20526;-78
2022/11/15 08:05:40;;;;;;;53.17;32.50;;;;;;;;;;5051085;28;20118;-77
2022/11/15 08:08:07;;;;;;;50.78;33.05;;;;;;;;;;5052649;28;20071;-77
2022/11/15 08:10:33;;;;;;;51.80;31.92;;;;;;;;;;5049733;28;20047;-77
2022/11/15 08:12:59;;;;;;;44.75;30.63;;;;;;;;;;5049179;28;20500;-77
2022/11/15 08:15:26;;;;;;;46.25;31.40;;;;;;;;;;5047551;28;20163;-77
2022/11/15 08:17:58;;;;;;;43.90;31.15;;;;;;;;;;5081125;28;20041;-76
2022/11/15 08:20:25;;;;;;;46.53;30.17;;;;;;;;;;5047802;28;20049;-77
2022/11/15 08:22:51;;;;;;;44.33;30.98;;;;;;;;;;5050339;28;20033;-76
2022/11/15 08:25:17;;;;;;;48.22;29.70;;;;;;;;;;5047322;28;20405;-77
2022/11/15 08:27:44;;;;;;;42.22;29.73;;;;;;;;;;5050297;28;20041;-77
2022/11/15 08:30:11;;;;;;;43.35;29.83;;;;;;;;;;5047932;28;20084;-77
2022/11/15 08:32:37;;;;;;;43.22;30.48;;;;;;;;;;5043014;28;20041;-77
2022/11/15 08:35:03;;;;;;;40.50;29.05;;;;;;;;;;5048914;28;20110;-77
2022/11/15 08:37:29;;;;;;;44.65;28.80;;;;;;;;;;5049263;28;20052;-77
2022/11/15 08:39:55;;;;;;;40.40;29.38;;;;;;;;;;5081091;28;20129;-76
2022/11/15 08:42:21;;;;;;;40.47;28.65;;;;;;;;;;5046335;28;20039;-76
2022/11/15 08:44:47;;;;;;;43.03;27.58;;;;;;;;;;5049260;28;20395;-76
2022/11/15 08:47:13;;;;;;;43.90;27.95;;;;;;;;;;5047568;28;20484;-76
2022/11/15 08:49:39;;;;;;;37.88;27.90;;;;;;;;;;5047616;28;20075;-76
2022/11/15 08:52:05;;;;;;;37.72;27.33;;;;;;;;;;5048965;28;20073;-77
2022/11/15 08:54:31;;;;;;;35.67;24.27;;;;;;;;;;5046914;28;20464;-76
2022/11/15 08:56:57;;;;;;;37.83;28.10;;;;;;;;;;5048938;28;20132;-77
2022/11/15 08:59:24;;;;;;;34.97;25.27;;;;;;;;;;5045537;28;20103;-76
2022/11/15 09:01:50;;;;;;;40.60;27.98;;;;;;;;;;5043755;28;20050;-77
2022/11/15 09:04:16;;;;;;;37.88;26.30;;;;;;;;;;5046348;28;20091;-77
2022/11/15 09:06:45;;;;;;;35.10;25.77;;;;;;;;;;5049515;28;20044;-76
2022/11/15 09:09:11;;;;;;;36.30;25.67;;;;;;;;;;5063240;28;20409;-76
2022/11/15 09:11:37;;;;;;;34.50;25.25;;;;;;;;;;5047545;28;20045;-76
2022/11/15 09:14:03;;;;;;;32.25;24.38;;;;;;;;;;5049687;28;20045;-77
2022/11/15 09:16:30;;;;;;;33.60;23.90;;;;;;;;;;5046842;28;20056;-77
2022/11/15 09:18:56;;;;;;;33.60;24.50;;;;;;;;;;5049540;28;20045;-77
2022/11/15 09:21:22;;;;;;;34.03;23.35;;;;;;;;;;5079617;28;20044;-76
2022/11/15 09:23:52;;;;;;;31.27;22.63;;;;;;;;;;5047439;28;20037;-76
2022/11/15 09:26:18;;;;;;;34.28;23.30;;;;;;;;;;5045764;28;20511;-77
2022/11/15 09:28:44;;;;;;;33.45;22.88;;;;;;;;;;5080752;28;20045;-77
2022/11/15 09:31:10;;;;;;;31.05;24.20;;;;;;;;;;5080816;28;20186;-76
2022/11/15 09:33:37;;;;;;;29.70;22.77;;;;;;;;;;5048146;28;20044;-77
2022/11/15 09:36:04;;;;;;;31.20;22.73;;;;;;;;;;5080908;28;20548;-76
2022/11/15 09:38:30;;;;;;;34.28;23.58;;;;;;;;;;5046430;28;20180;-76
2022/11/15 09:41:13;;;;;;;33.53;22.80;;;;;;;;;;5043440;28;20131;-76
2022/11/15 09:44:12;;;;;;;29.35;22.63;;;;;;;;;;5080374;28;20466;-77
2022/11/15 09:46:38;;;;;;;27.15;21.05;;;;;;;;;;5031628;28;20056;-77
2022/11/15 09:49:04;;;;;;;27.95;21.98;;;;;;;;;;5047955;28;20472;-76
2022/11/15 09:51:46;;;;;;;31.13;22.10;;;;;;;;;;5046554;28;20045;-76
2022/11/15 09:54:32;;;;;;;27.02;19.83;;;;;;;;;;5078490;28;20037;-76
2022/11/15 09:57:19;;;;;;;31.85;20.70;;;;;;;;;;5042797;28;20045;-77
2022/11/15 10:00:03;;;;;;;26.05;20.13;;;;;;;;;;5046552;28;20052;-76
2022/11/15 10:02:29;;;;;;;24.05;19.33;;;;;;;;;;5046467;28;20060;-76
2022/11/15 10:04:58;;;;;;;25.60;19.80;;;;;;;;;;5046187;28;20480;-76
2022/11/15 10:07:31;;;;;;;25.08;19.38;;;;;;;;;;5046433;28;20056;-76
2022/11/15 10:09:57;;;;;;;;;;;;;;;;;;5047720;28;20075;-77
2022/11/15 10:12:27;;;;;;;26.75;19.50;;;;;;;;;;5074979;28;19953;-76
2022/11/15 10:14:59;;;;;;;28.83;20.83;;;;;;;;;;5046682;28;20444;-76
2022/11/15 10:17:35;;;;;;;26.10;20.35;;;;;;;;;;5046347;28;20760;-77
2022/11/15 10:20:01;;;;;;;28.65;19.70;;;;;;;;;;5047337;28;20049;-78
2022/11/15 10:22:30;;;;;;;25.50;19.52;;;;;;;;;;5045870;28;20041;-76
2022/11/15 10:25:07;;;;;;;25.88;18.45;;;;;;;;;;5047329;28;20103;-76
2022/11/15 10:27:33;;;;;;;25.38;19.17;;;;;;;;;;5045891;28;20041;-76
2022/11/15 10:29:59;;;;;;;25.25;18.25;;;;;;;;;;5079135;28;20059;-77
2022/11/15 10:32:25;;;;;;;23.58;17.95;;;;;;;;;;5044098;28;20053;-76
2022/11/15 10:34:51;;;;;;;20.40;15.65;;;;;;;;;;5080588;28;20419;-77
2022/11/15 10:37:29;;;;;;;20.05;16.08;;;;;;;;;;5043251;28;20116;-76
2022/11/15 10:40:05;;;;;;;18.45;14.32;;;;;;;;;;5044818;28;20376;-77
2022/11/15 10:42:31;;;;;;;17.17;14.00;;;;;;;;;;5047446;28;20151;-76
2022/11/15 10:44:57;;;;;;;15.05;12.93;;;;;;;;;;5078791;28;20048;-76
2022/11/15 10:47:28;;;;;;;17.25;13.52;;;;;;;;;;5044819;28;20044;-76
2022/11/15 10:49:57;;;;;;;16.45;12.57;;;;;;;;;;5078554;28;20057;-77
2022/11/15 10:52:24;;;;;;;16.60;12.38;;;;;;;;;;5045496;28;20052;-76
2022/11/15 10:55:02;;;;;;;17.45;12.57;;;;;;;;;;5042028;28;20107;-77
2022/11/15 10:57:39;;;;;;;17.38;12.68;;;;;;;;;;5042827;28;20390;-77
2022/11/15 11:00:06;;;;;;;18.17;12.25;;;;;;;;;;5046208;28;20059;-76
2022/11/15 11:02:35;;;;;;;15.52;11.98;;;;;;;;;;5046842;28;20088;-77
2022/11/15 11:05:02;;;;;;;14.65;12.10;;;;;;;;;;5042636;28;20404;-76
2022/11/15 11:07:30;;;;;;;15.40;11.75;;;;;;;;;;5041722;28;20056;-76
2022/11/15 11:10:06;;;;;;;15.80;10.95;;;;;;;;;;5046431;28;20404;-77
2022/11/15 11:12:33;;;;;;;16.80;10.93;;;;;;;;;;5043104;28;20339;-77
2022/11/15 11:15:00;;;;;;;13.40;10.40;;;;;;;;;;5045052;28;20129;-77
2022/11/15 11:17:30;;;;;;;13.95;11.20;;;;;;;;;;5050023;28;20717;-77
2022/11/15 11:19:59;;;;;;;16.40;10.70;;;;;;;;;;5042463;28;20120;-77
2022/11/15 11:22:25;;;;;;;15.20;10.98;;;;;;;;;;5045789;28;20814;-77
2022/11/15 11:25:10;;;;;;;16.35;10.80;;;;;;;;;;5049271;28;20048;-77
2022/11/15 11:27:55;;;;;;;13.35;11.07;;;;;;;;;;5050915;28;20537;-77
2022/11/15 11:30:24;;;;;;;16.17;11.63;;;;;;;;;;5049700;28;20033;-77
2022/11/15 11:32:54;;;;;;;16.17;11.57;;;;;;;;;;5047691;28;20051;-77
2022/11/15 11:35:27;;;;;;;14.93;11.00;;;;;;;;;;5046110;28;20389;-77
2022/11/15 11:37:55;;;;;;;15.07;11.55;;;;;;;;;;5049737;28;20045;-77
2022/11/15 11:40:23;;;;;;;14.40;11.35;;;;;;;;;;5048084;28;20045;-77
2022/11/15 11:42:59;;;;;;;15.45;11.43;;;;;;;;;;5045748;28;20041;-77
2022/11/15 11:45:32;;;;;;;14.18;10.95;;;;;;;;;;5048538;28;20099;-79
2022/11/15 11:48:14;;;;;;;16.70;11.43;;;;;;;;;;5049057;28;20068;-79
2022/11/15 11:50:41;;;;;;;14.10;10.82;;;;;;;;;;5048624;28;20075;-77
2022/11/15 11:53:10;;;;;;;15.75;11.70;;;;;;;;;;5044062;28;20041;-76
2022/11/15 11:55:41;;;;;;;17.02;10.80;;;;;;;;;;5047879;28;20091;-77
2022/11/15 11:58:17;;;;;;;14.15;10.23;;;;;;;;;;5077530;28;20065;-77
2022/11/15 12:01:06;;;;;;;14.63;10.32;;;;;;;;;;5049959;28;20488;-77
2022/11/15 12:03:44;;;;;;;14.43;10.90;;;;;;;;;;5049133;28;20033;-77
2022/11/15 12:06:25;;;;;;;15.75;10.80;;;;;;;;;;5048570;28;20052;-77
2022/11/15 12:08:57;;;;;;;14.23;10.95;;;;;;;;;;5048531;28;20131;-77
2022/11/15 12:11:41;;;;;;;15.27;10.75;;;;;;;;;;5048768;28;20063;-77
2022/11/15 12:14:23;;;;;;;12.80;9.90;;;;;;;;;;5081294;28;20485;-77
2022/11/15 12:16:49;;;;;;;12.35;9.63;;;;;;;;;;5049150;28;20051;-77
2022/11/15 12:19:15;;;;;;;10.95;8.75;;;;;;;;;;5048688;28;20037;-77
2022/11/15 12:21:54;;;;;;;10.43;8.68;;;;;;;;;;5049030;28;20092;-77
2022/11/15 12:24:39;;;;;;;12.82;8.73;;;;;;;;;;5046916;28;20044;-77
2022/11/15 12:27:14;;;;;;;9.73;7.35;;;;;;;;;;5048963;28;20492;-77
2022/11/15 12:29:48;;;;;;;11.77;7.18;;;;;;;;;;5049370;28;20512;-78
2022/11/15 12:32:22;;;;;;;8.88;6.57;;;;;;;;;;5047472;28;20053;-76
2022/11/15 12:34:49;;;;;;;10.15;6.65;;;;;;;;;;5047792;28;20060;-78
2022/11/15 12:37:37;;;;;;;7.40;5.35;;;;;;;;;;5048077;28;20057;-77
2022/11/15 12:40:10;;;;;;;8.18;5.13;;;;;;;;;;5049187;28;20158;-77
2022/11/15 12:42:43;;;;;;;7.07;4.93;;;;;;;;;;5047505;28;20041;-77
2022/11/15 12:45:30;;;;;;;5.72;4.82;;;;;;;;;;5043280;28;20123;-77
2022/11/15 12:48:15;;;;;;;6.20;4.95;;;;;;;;;;5045969;28;20045;-78
2022/11/15 12:50:53;;;;;;;7.47;4.95;;;;;;;;;;5081791;28;20121;-77
2022/11/15 12:53:26;;;;;;;6.18;4.60;;;;;;;;;;5079162;28;20513;-77
2022/11/15 12:56:19;;;;;;;6.80;5.20;;;;;;;;;;5082291;28;20382;-77
2022/11/15 12:58:48;;;;;;;6.60;5.20;;;;;;;;;;5045505;28;20048;-78
2022/11/15 13:01:35;;;;;;;7.95;5.80;;;;;;;;;;5045122;28;20136;-77
2022/11/15 13:04:13;;;;;;;7.05;5.70;;;;;;;;;;5049498;28;20072;-77
2022/11/15 13:06:44;;;;;;;7.70;6.28;;;;;;;;;;5064170;28;20116;-77
2022/11/15 13:09:28;;;;;;;6.90;6.05;;;;;;;;;;5080832;28;20388;-77
2022/11/15 13:11:55;;;;;;;7.07;5.82;;;;;;;;;;5081466;28;20484;-77
2022/11/15 13:14:39;;;;;;;7.50;5.55;;;;;;;;;;5045660;28;20064;-77
2022/11/15 13:17:18;;;;;;;6.82;5.70;;;;;;;;;;5046343;28;20443;-77
2022/11/15 13:19:44;;;;;;;7.13;5.40;;;;;;;;;;5047516;28;20128;-77
2022/11/15 13:24:55;;;;;;;5.82;5.22;;;;;;;;;;5046233;28;20424;-77
2022/11/15 13:27:21;;;;;;;6.30;5.10;;;;;;;;;;5046880;28;20052;-77
2022/11/15 13:29:47;;;;;;;6.32;4.93;;;;;;;;;;5079754;28;20098;-77
2022/11/15 13:32:15;;;;;;;6.07;4.82;;;;;;;;;;5048372;28;20044;-77
2022/11/15 13:34:46;;;;;;;7.32;4.45;;;;;;;;;;5045959;28;20087;-77
2022/11/15 13:37:21;;;;;;;5.32;4.20;;;;;;;;;;5048638;28;20045;-77
2022/11/15 13:39:48;;;;;;;7.20;4.45;;;;;;;;;;5046057;28;20041;-77
2022/11/15 13:42:15;;;;;;;6.82;4.30;;;;;;;;;;5047580;28;20123;-77
2022/11/15 13:44:54;;;;;;;5.30;4.40;;;;;;;;;;5047982;28;20052;-79
2022/11/15 13:47:20;;;;;;;7.32;4.45;;;;;;;;;;5048155;28;20052;-77
2022/11/15 13:49:50;;;;;;;6.65;5.03;;;;;;;;;;5043846;28;20041;-77
2022/11/15 13:52:16;;;;;;;4.57;4.00;;;;;;;;;;5044671;28;20037;-77
2022/11/15 13:54:57;;;;;;;5.15;4.00;;;;;;;;;;5077212;28;20126;-77
2022/11/15 13:57:29;;;;;;;5.25;4.28;;;;;;;;;;5046084;28;20503;-77
2022/11/15 13:59:56;;;;;;;7.10;4.35;;;;;;;;;;5080494;28;20144;-77
2022/11/15 14:02:29;;;;;;;6.95;4.32;;;;;;;;;;5042401;28;20045;-75
2022/11/15 14:04:57;;;;;;;4.72;3.88;;;;;;;;;;5043830;28;20114;-76
2022/11/15 14:07:25;;;;;;;6.82;3.90;;;;;;;;;;5051962;28;20151;-77
2022/11/15 14:09:51;;;;;;;5.00;3.42;;;;;;;;;;5044487;28;20041;-76
2022/11/15 14:12:31;;;;;;;4.75;3.55;;;;;;;;;;5055854;28;20161;-76
2022/11/15 14:14:58;;;;;;;6.88;3.83;;;;;;;;;;5043068;28;20289;-76
2022/11/15 14:17:31;;;;;;;5.40;3.30;;;;;;;;;;5051130;28;20088;-75
2022/11/15 14:19:58;;;;;;;6.30;3.58;;;;;;;;;;5049988;28;20486;-77
2022/11/15 14:22:28;;;;;;;6.03;3.78;;;;;;;;;;5048923;28;20397;-77
2022/11/15 14:25:12;;;;;;;4.20;3.70;;;;;;;;;;5048285;28;20048;-77
2022/11/15 14:27:39;;;;;;;4.25;3.85;;;;;;;;;;5081033;28;20115;-79
2022/11/15 14:30:05;;;;;;;5.03;3.80;;;;;;;;;;5049108;28;20385;-78
2022/11/15 14:32:43;;;;;;;4.93;3.78;;;;;;;;;;5055119;28;20485;-79
2022/11/15 14:35:12;;;;;;;6.57;3.88;;;;;;;;;;5056413;28;20404;-78
2022/11/15 14:37:38;;;;;;;4.63;3.80;;;;;;;;;;5049923;28;20044;-78
2022/11/15 14:40:05;;;;;;;5.28;3.67;;;;;;;;;;5053505;28;20450;-78
2022/11/15 14:42:32;;;;;;;3.85;3.45;;;;;;;;;;5050395;28;20041;-78
2022/11/15 14:44:58;;;;;;;4.20;3.80;;;;;;;;;;5046071;28;20503;-79